Latest Weather Observations for Gabo Island

IDV60801

Issued at 2:02 pm EDT Tuesday 9 February 2016 (issued every 30 minutes, with the page automatically refreshed every 10 minutes)

About weather observations | Map of weather stations | Latest weather observations for VIC | Other Formats
Station Details ID: 084016 Name: GABO ISLAND LIGHTHOUSE Lat: -37.57 Lon: 149.92 Height: 15.2 m
Data from the previous 72 hours. | See also: Recent months at Gabo Island
Date/Time
EDT
Temp
°C
App
Temp
°C
Dew
Point
Rel
Hum
%
Delta-T
°C
Wind Press
QNH
hPa
Press
MSL
hPa
Rain
since 9 am
mm
Dir
 
Spd
km/h
Gust
km/h
Spd
kts
Gust
kts
09/02:00pm 22.9 22.1 17.0 69 3.6 SSE 17 20 9 11 1020.6 - 0.0
09/01:30pm 23.5 22.4 17.2 67 3.9 S 19 20 10 11 1020.9 - 0.0
09/01:00pm 23.5 22.1 16.6 65 4.2 S 19 20 10 11 1021.0 - 0.0
09/12:30pm 23.3 21.8 16.2 64 4.3 SSW 19 20 10 11 1021.3 - 0.0
09/12:00pm 22.0 20.8 15.1 65 4.1 SSW 15 17 8 9 1021.6 1021.5 0.0
09/11:30am 22.0 21.3 15.3 65 4.0 SW 13 17 7 9 1021.7 - 0.0
09/11:00am 22.2 20.9 14.9 63 4.3 WSW 15 17 8 9 1021.8 - 0.0
09/10:30am 22.1 20.7 15.6 66 3.9 W 17 20 9 11 1021.9 - 0.0
09/10:00am 21.5 19.8 14.7 65 4.0 W 17 20 9 11 1022.0 - 0.0
09/09:30am 20.9 18.7 14.4 66 3.8 W 19 22 10 12 1022.0 - 0.0
09/09:00am 20.2 18.1 14.7 70 3.2 WNW 19 22 10 12 1022.0 1021.8 0.0
09/08:30am 19.1 17.4 14.6 75 2.6 WNW 17 20 9 11 1021.8 - 0.0
09/08:00am 17.8 15.9 14.1 79 2.1 WNW 17 24 9 13 1021.7 - 0.0
09/07:30am 17.1 14.9 14.5 85 1.5 WNW 19 22 10 12 1021.5 - 0.0
09/07:00am 17.1 14.8 14.7 86 1.4 WNW 20 26 11 14 1021.3 - 0.0
09/06:30am 17.4 14.5 13.9 80 2.0 W 22 28 12 15 1021.1 - 0.0
09/06:00am 17.0 15.2 14.5 85 1.4 WNW 17 26 9 14 1020.9 1020.7 0.0
09/05:30am 17.7 14.2 14.6 82 1.8 W 26 32 14 17 1020.6 - 0.0
09/05:00am 17.6 14.3 15.0 85 1.5 W 26 35 14 19 1020.3 - 0.0
09/04:30am 17.6 13.9 15.0 85 1.5 W 28 35 15 19 1020.3 - 0.0
09/04:00am 17.9 14.2 15.1 84 1.6 W 28 35 15 19 1020.1 - 0.0
09/03:30am 17.9 13.8 15.0 83 1.7 W 30 37 16 20 1020.1 - 0.0
09/03:00am 18.1 14.5 15.2 83 1.7 W 28 35 15 19 1020.3 1020.2 0.0
09/02:30am 18.2 14.5 15.1 82 1.8 W 28 35 15 19 1020.4 - 0.0
09/02:00am 18.4 14.4 15.1 81 1.9 W 30 37 16 20 1020.6 - 0.0
09/01:30am 18.6 15.5 15.7 83 1.7 W 26 32 14 17 1020.9 - 0.0
09/01:00am 18.6 15.6 15.9 84 1.6 W 26 32 14 17 1021.0 - 0.0
09/12:30am 18.8 16.0 16.3 85 1.5 W 26 30 14 16 1021.0 - 0.0
09/12:00am 18.6 16.0 15.9 84 1.6 W 24 30 13 16 1021.2 1021.1 0.0
 
Date/Time
EDT
Temp
°C
App
Temp
°C
Dew
Point
Rel
Hum
%
Delta-T
°C
Wind Press
QNH
hPa
Press
MSL
hPa
Rain
since 9 am
mm
Dir
 
Spd
km/h
Gust
km/h
Spd
kts
Gust
kts
08/11:30pm 19.0 16.6 16.3 84 1.6 W 24 28 13 15 1021.1 - 0.0
08/11:00pm 19.5 17.0 16.1 81 2.0 W 24 30 13 16 1021.2 - 0.0
08/10:30pm 19.5 17.1 16.3 82 1.9 W 24 30 13 16 1021.1 - 0.0
08/10:00pm 19.6 17.2 16.3 81 2.0 WSW 24 28 13 15 1020.9 - 0.0
08/09:30pm 19.7 16.8 16.2 80 2.1 WSW 26 32 14 17 1020.7 - 0.0
08/09:00pm 20.0 17.1 16.1 78 2.3 WSW 26 33 14 18 1020.4 1020.3 0.0
08/08:30pm 20.5 16.9 16.3 77 2.5 SW 30 33 16 18 1020.2 - 0.0
08/08:00pm 20.5 16.5 16.3 77 2.5 SW 32 37 17 20 1019.9 - 0.0
08/07:30pm 20.7 16.3 16.6 77 2.5 SW 35 43 19 23 1019.6 - 0.0
08/07:00pm 20.6 15.0 16.6 78 2.4 SW 41 46 22 25 1019.3 - 0.0
08/06:30pm 20.7 15.9 16.7 78 2.4 SSW 37 43 20 23 1019.1 - 0.0
08/06:00pm 20.9 16.0 16.4 75 2.7 SW 37 43 20 23 1019.0 1018.9 0.0
08/05:30pm 20.9 15.3 16.6 76 2.6 SW 41 46 22 25 1019.1 - 0.0
08/05:00pm 21.0 15.7 16.3 74 2.8 SW 39 46 21 25 1019.3 - 0.0
08/04:30pm 20.9 15.0 17.1 79 2.3 SSW 44 52 24 28 1019.2 - 0.0
08/04:00pm 21.2 15.7 17.6 80 2.2 SSW 43 50 23 27 1019.2 - 0.0
08/03:30pm 21.3 16.4 18.1 82 2.0 SSW 41 46 22 25 1019.1 - 0.0
08/03:00pm 21.2 16.7 18.3 83 1.8 SSW 39 44 21 24 1019.2 1019.1 0.0
08/02:30pm 21.4 16.8 18.0 81 2.1 SSW 39 43 21 23 1019.3 - 0.0
08/02:00pm 21.4 16.5 18.2 82 2.0 SSW 41 48 22 26 1019.3 - 0.0
08/01:30pm 21.4 15.7 17.3 77 2.5 SSW 43 48 23 26 1019.4 - 0.0
08/01:00pm 21.3 16.1 17.4 78 2.4 SSW 41 48 22 26 1019.4 - 0.0
08/12:30pm 21.5 16.1 17.8 79 2.3 SSW 43 50 23 27 1019.5 - 0.0
08/12:00pm 21.6 15.7 17.2 76 2.7 SW 44 52 24 28 1019.6 1019.5 0.0
08/11:30am 21.6 15.8 17.5 77 2.5 SW 44 50 24 27 1019.6 - 0.0
08/11:00am 21.5 17.3 18.1 81 2.1 SW 37 44 20 24 1019.5 - 0.0
08/10:56am 21.6 17.4 18.1 80 2.2 SW 37 44 20 24 1019.5 - 0.0
08/10:30am 22.1 21.0 17.4 74 2.9 SW 19 24 10 13 1019.6 - 0.0
08/10:00am 21.5 20.7 16.2 72 3.2 WSW 15 19 8 10 1019.4 - 0.0
08/09:30am 21.4 20.7 16.3 72 3.1 WSW 15 17 8 9 1019.3 - 0.0
08/09:00am 21.0 20.9 16.9 77 2.5 W 13 17 7 9 1019.3 1019.2 0.0
08/08:30am 20.4 20.4 17.3 82 1.9 W 13 15 7 8 1019.2 - 0.0
08/08:00am 19.4 19.4 17.3 88 1.3 WNW 13 19 7 10 1018.9 - 0.0
08/07:30am 18.5 17.7 17.2 92 0.8 WNW 17 20 9 11 1018.8 - 0.0
08/07:00am 18.2 17.2 16.5 90 1.0 W 17 20 9 11 1018.5 - 0.0
08/06:30am 17.0 16.5 16.8 99 0.1 W 15 17 8 9 1018.3 - 0.0
08/06:00am 17.6 17.2 16.1 91 0.9 W 13 17 7 9 1017.9 1017.8 0.0
08/05:30am 17.4 17.5 16.4 94 0.6 W 11 13 6 7 1017.8 - 0.0
08/05:00am 18.1 18.3 16.8 92 0.8 WSW 11 15 6 8 1017.6 - 0.0
08/04:30am 18.6 18.9 17.1 91 0.9 W 11 17 6 9 1017.6 - 0.0
08/04:00am 17.8 17.8 16.3 91 0.9 N 11 13 6 7 1017.5 - 0.0
08/03:30am 18.6 18.1 16.9 90 1.0 NNE 15 17 8 9 1017.4 - 0.0
08/03:00am 18.1 18.2 16.6 91 0.9 NNE 11 13 6 7 1017.5 1017.4 0.0
08/02:30am 18.4 18.2 16.7 90 1.0 NNE 13 17 7 9 1017.6 - 0.0
08/02:00am 18.5 17.9 16.7 89 1.1 NNE 15 17 8 9 1017.8 - 0.0
08/01:30am 18.8 17.9 16.8 88 1.2 NNE 17 20 9 11 1017.9 - 0.0
08/01:00am 19.0 18.0 16.7 86 1.4 NNE 17 20 9 11 1017.9 - 0.0
08/12:30am 19.1 18.2 16.9 87 1.3 NNE 17 20 9 11 1018.1 - 0.0
08/12:00am 19.0 18.8 16.7 86 1.4 NNE 13 17 7 9 1018.2 1018.1 0.0
 
Date/Time
EDT
Temp
°C
App
Temp
°C
Dew
Point
Rel
Hum
%
Delta-T
°C
Wind Press
QNH
hPa
Press
MSL
hPa
Rain
since 9 am
mm
Dir
 
Spd
km/h
Gust
km/h
Spd
kts
Gust
kts
07/11:30pm 19.1 18.6 16.8 86 1.4 N 15 17 8 9 1018.2 - 0.0
07/11:00pm 19.3 18.7 16.6 84 1.6 N 15 17 8 9 1018.2 - 0.0
07/10:30pm 19.4 18.4 16.7 84 1.6 NNE 17 20 9 11 1018.4 - 0.0
07/10:00pm 19.7 18.3 16.9 84 1.7 NNE 20 24 11 13 1018.3 - 0.0
07/09:30pm 20.0 18.8 17.0 83 1.8 NNE 19 20 10 11 1018.1 - 0.0
07/09:00pm 20.5 18.8 17.2 81 2.0 NNE 22 26 12 14 1017.8 1017.7 0.0
07/08:30pm 20.8 19.1 17.2 80 2.2 NNE 22 26 12 14 1017.4 - 0.0
07/08:00pm 21.3 19.1 16.9 76 2.7 NNE 24 30 13 16 1017.1 - 0.0
07/07:30pm 21.9 18.4 16.5 71 3.3 NNE 30 33 16 18 1016.7 - 0.0
07/07:00pm 22.4 18.4 16.3 68 3.7 NNE 32 35 17 19 1016.3 - 0.0
07/06:30pm 22.6 19.3 16.9 70 3.5 NNE 30 32 16 17 1016.2 - 0.0
07/06:00pm 22.7 19.0 17.0 70 3.5 NE 32 37 17 20 1016.1 1016.0 0.0
07/05:30pm 22.9 19.1 16.7 68 3.8 NE 32 37 17 20 1016.1 - 0.0
07/05:00pm 23.1 19.4 16.9 68 3.8 NE 32 37 17 20 1016.1 - 0.0
07/04:30pm 23.3 19.4 17.0 67 3.9 NE 33 39 18 21 1016.1 - 0.0
07/04:00pm 23.1 19.3 17.1 69 3.7 NE 33 37 18 20 1016.2 - 0.0
07/03:30pm 23.3 19.5 17.1 68 3.8 NE 33 39 18 21 1016.2 - 0.0
07/03:00pm 23.2 19.0 17.2 69 3.7 NE 35 39 19 21 1016.3 1016.2 0.0
07/02:30pm 23.3 19.1 17.1 68 3.8 NE 35 41 19 22 1016.5 - 0.0
07/02:00pm 23.3 18.7 17.1 68 3.8 NE 37 43 20 23 1016.5 - 0.0
07/01:30pm 23.2 18.6 17.0 68 3.8 NE 37 43 20 23 1016.5 - 0.0
07/01:00pm 23.1 18.8 16.9 68 3.8 NE 35 41 19 22 1016.6 - 0.0
07/12:30pm 23.3 19.3 16.8 67 4.0 NE 33 41 18 22 1016.8 - 0.0
07/12:00pm 22.8 18.1 15.8 64 4.2 NE 35 44 19 24 1016.8 1016.7 0.0
07/11:30am 23.3 19.1 16.2 64 4.3 NE 33 39 18 21 1017.0 - 0.0
07/11:00am 23.1 19.2 16.4 66 4.1 NE 32 37 17 20 1017.4 - 0.0
07/10:30am 22.7 18.3 15.1 62 4.5 NE 32 37 17 20 1017.3 - 0.0
07/10:00am 22.4 17.8 15.2 63 4.3 NNE 33 41 18 22 1017.2 - 0.0
07/09:30am 22.2 17.1 14.9 63 4.3 NNE 35 41 19 22 1017.3 - 0.0
07/09:00am 22.0 18.7 14.9 64 4.2 NNE 26 33 14 18 1017.5 1017.4 0.2
07/08:30am 21.2 18.1 14.5 65 3.9 NNE 24 32 13 17 1017.5 - 0.2
07/08:00am 20.3 17.4 14.1 67 3.6 NNE 22 26 12 14 1017.4 - 0.2
07/07:30am 19.2 16.9 14.0 72 3.0 NNE 19 22 10 12 1017.2 - 0.2
07/07:00am 18.3 16.4 14.1 76 2.4 NNE 17 20 9 11 1017.1 - 0.2
07/06:30am 17.9 15.5 13.9 77 2.3 NNE 19 24 10 13 1016.8 - 0.2
07/06:00am 17.8 15.9 14.3 80 2.0 NNE 17 22 9 12 1016.7 1016.6 0.2
07/05:30am 18.0 15.8 14.3 79 2.1 NNE 19 24 10 13 1016.5 - 0.2
07/05:00am 18.0 15.7 14.2 78 2.2 NNE 19 24 10 13 1016.4 - 0.2
07/04:30am 18.2 16.4 14.4 78 2.2 NNE 17 19 9 10 1016.5 - 0.2
07/04:00am 16.8 15.7 13.2 79 2.0 N 11 15 6 8 1016.9 - 0.2
07/03:30am 18.1 16.9 13.9 76 2.4 N 13 15 7 8 1016.9 - 0.2
07/03:00am 18.8 17.1 13.7 72 2.9 N 15 19 8 10 1017.0 1016.9 0.2
07/02:30am 19.5 17.4 13.7 69 3.3 N 17 22 9 12 1017.3 - 0.2
07/02:00am 20.3 17.4 14.1 67 3.6 NNE 22 32 12 17 1017.4 - 0.2
07/01:30am 20.8 16.9 15.4 71 3.2 NE 30 33 16 18 1017.7 - 0.2
07/01:00am 20.9 17.2 14.9 68 3.5 NE 28 35 15 19 1018.1 - 0.2
07/12:30am 20.7 16.4 14.5 67 3.6 NE 30 35 16 19 1018.2 - 0.2
07/12:00am 20.6 16.9 14.0 66 3.8 NE 26 37 14 20 1018.3 1018.2 0.2
 
Date/Time
EDT
Temp
°C
App
Temp
°C
Dew
Point
Rel
Hum
%
Delta-T
°C
Wind Press
QNH
hPa
Press
MSL
hPa
Rain
since 9 am
mm
Dir
 
Spd
km/h
Gust
km/h
Spd
kts
Gust
kts
06/11:30pm 20.7 15.9 14.1 66 3.8 NE 32 39 17 21 1018.5 - 0.2
06/11:00pm 20.6 16.2 14.2 66 3.7 NE 30 35 16 19 1018.7 - 0.2
06/10:30pm 20.7 16.4 14.5 67 3.6 NE 30 35 16 19 1018.9 - 0.2
06/10:00pm 20.7 16.1 14.5 67 3.6 NE 32 37 17 20 1018.8 - 0.2
06/09:30pm 20.8 16.2 14.6 67 3.6 NE 32 39 17 21 1018.6 - 0.2
06/09:00pm 20.7 16.4 14.5 67 3.6 NE 30 35 16 19 1018.4 1018.3 0.2
06/08:30pm 20.7 16.2 13.7 64 4.0 NE 30 35 16 19 1018.1 - 0.2
06/08:00pm 20.8 16.5 14.5 67 3.7 NE 30 35 16 19 1018.1 - 0.2
06/07:30pm 21.1 16.3 14.0 64 4.1 NE 32 37 17 20 1017.9 - 0.2
06/07:00pm 21.5 17.6 15.4 68 3.6 NE 30 35 16 19 1017.6 - 0.2
06/06:30pm 21.4 17.0 14.2 63 4.2 NE 30 33 16 18 1017.6 - 0.2
06/06:00pm 22.0 17.6 14.1 61 4.6 NE 30 35 16 19 1017.7 1017.6 0.2
06/05:30pm 21.8 17.4 14.1 61 4.5 NE 30 33 16 18 1017.7 - 0.2
06/05:00pm 21.9 18.1 14.8 64 4.2 NE 28 33 15 18 1017.9 - 0.2
06/04:30pm 21.9 17.3 14.6 63 4.3 ENE 32 35 17 19 1018.1 - 0.2
06/04:00pm 22.4 17.9 15.5 65 4.1 ENE 33 37 18 20 1018.0 - 0.2
06/03:30pm 22.3 17.7 15.2 64 4.2 ENE 33 37 18 20 1018.2 - 0.2
06/03:00pm 22.7 18.9 15.7 64 4.2 ENE 30 33 16 18 1018.5 1018.4 0.2
06/02:30pm 22.7 19.1 15.3 63 4.4 ENE 28 32 15 17 1018.8 - 0.2

Other Formats:

Comma delimited format used in spreadsheet applications
http://www.bom.gov.au/fwo/IDV60801/IDV60801.94933.axf

JavaScript Object Notation format (JSON) in row-major order
http://www.bom.gov.au/fwo/IDV60801/IDV60801.94933.json